sensor_id;sensor_type;location;lat;lon;timestamp;temperature;humidity
14349;DHT22;7258;50.376;8.742;2023-04-15T00:01:57;5.30;99.90
14349;DHT22;7258;50.376;8.742;2023-04-15T00:22:19;5.10;99.90
14349;DHT22;7258;50.376;8.742;2023-04-15T00:25:39;5.00;99.90
14349;DHT22;7258;50.376;8.742;2023-04-15T00:27:49;5.00;99.90
14349;DHT22;7258;50.376;8.742;2023-04-15T00:33:16;4.90;99.90
14349;DHT22;7258;50.376;8.742;2023-04-15T00:39:19;4.90;99.90
14349;DHT22;7258;50.376;8.742;2023-04-15T00:42:21;4.90;99.90
14349;DHT22;7258;50.376;8.742;2023-04-15T00:45:20;4.80;99.90
14349;DHT22;7258;50.376;8.742;2023-04-15T00:48:17;4.80;99.90
14349;DHT22;7258;50.376;8.742;2023-04-15T00:50:37;4.70;99.90
14349;DHT22;7258;50.376;8.742;2023-04-15T00:53:26;4.70;99.90
14349;DHT22;7258;50.376;8.742;2023-04-15T00:55:36;4.70;99.90
14349;DHT22;7258;50.376;8.742;2023-04-15T00:57:56;4.60;99.90
14349;DHT22;7258;50.376;8.742;2023-04-15T01:00:23;4.60;99.90
14349;DHT22;7258;50.376;8.742;2023-04-15T01:02:46;4.60;99.90
14349;DHT22;7258;50.376;8.742;2023-04-15T01:04:49;4.50;99.90
14349;DHT22;7258;50.376;8.742;2023-04-15T01:06:59;4.50;99.90
14349;DHT22;7258;50.376;8.742;2023-04-15T01:09:10;4.50;99.90
14349;DHT22;7258;50.376;8.742;2023-04-15T01:11:29;4.50;99.90
14349;DHT22;7258;50.376;8.742;2023-04-15T01:18:16;4.40;99.90
14349;DHT22;7258;50.376;8.742;2023-04-15T01:20:28;4.40;99.90
14349;DHT22;7258;50.376;8.742;2023-04-15T01:23:23;4.40;99.90
14349;DHT22;7258;50.376;8.742;2023-04-15T01:26:06;4.30;99.90
14349;DHT22;7258;50.376;8.742;2023-04-15T01:28:40;4.30;99.90
14349;DHT22;7258;50.376;8.742;2023-04-15T01:38:19;4.30;99.90
14349;DHT22;7258;50.376;8.742;2023-04-15T01:52:14;4.30;99.90
14349;DHT22;7258;50.376;8.742;2023-04-15T01:59:12;4.20;99.90
14349;DHT22;7258;50.376;8.742;2023-04-15T02:05:51;4.20;99.90
14349;DHT22;7258;50.376;8.742;2023-04-15T02:20:28;4.00;99.90
14349;DHT22;7258;50.376;8.742;2023-04-15T02:23:29;4.00;99.90
14349;DHT22;7258;50.376;8.742;2023-04-15T02:26:11;4.00;99.90
14349;DHT22;7258;50.376;8.742;2023-04-15T02:33:12;3.90;99.90
14349;DHT22;7258;50.376;8.742;2023-04-15T02:36:36;3.90;99.90
14349;DHT22;7258;50.376;8.742;2023-04-15T02:38:43;4.00;99.90
14349;DHT22;7258;50.376;8.742;2023-04-15T02:40:55;4.00;99.90
14349;DHT22;7258;50.376;8.742;2023-04-15T02:51:40;4.10;99.90
14349;DHT22;7258;50.376;8.742;2023-04-15T03:02:23;4.10;99.90
14349;DHT22;7258;50.376;8.742;2023-04-15T03:09:18;4.10;99.90
14349;DHT22;7258;50.376;8.742;2023-04-15T03:15:54;4.10;99.90
14349;DHT22;7258;50.376;8.742;2023-04-15T03:36:22;3.70;99.90
14349;DHT22;7258;50.376;8.742;2023-04-15T03:38:33;3.70;99.90
14349;DHT22;7258;50.376;8.742;2023-04-15T03:40:52;3.70;99.90
14349;DHT22;7258;50.376;8.742;2023-04-15T03:51:10;3.70;99.90
14349;DHT22;7258;50.376;8.742;2023-04-15T03:57:40;3.60;99.90
14349;DHT22;7258;50.376;8.742;2023-04-15T04:00:29;3.60;99.90
14349;DHT22;7258;50.376;8.742;2023-04-15T04:02:56;3.60;99.90
14349;DHT22;7258;50.376;8.742;2023-04-15T04:05:00;3.60;99.90
14349;DHT22;7258;50.376;8.742;2023-04-15T04:07:17;3.70;99.90
14349;DHT22;7258;50.376;8.742;2023-04-15T04:09:59;3.70;99.90
14349;DHT22;7258;50.376;8.742;2023-04-15T04:12:17;3.60;99.90
14349;DHT22;7258;50.376;8.742;2023-04-15T04:17:19;3.60;99.90
14349;DHT22;7258;50.376;8.742;2023-04-15T04:20:34;3.60;99.90
14349;DHT22;7258;50.376;8.742;2023-04-15T04:34:09;3.50;99.90
14349;DHT22;7258;50.376;8.742;2023-04-15T04:37:13;3.60;99.90
14349;DHT22;7258;50.376;8.742;2023-04-15T04:40:20;3.60;99.90
14349;DHT22;7258;50.376;8.742;2023-04-15T04:42:39;3.60;99.90
14349;DHT22;7258;50.376;8.742;2023-04-15T04:45:38;3.60;99.90
14349;DHT22;7258;50.376;8.742;2023-04-15T04:47:48;3.60;99.90
14349;DHT22;7258;50.376;8.742;2023-04-15T04:50:00;3.60;99.90
14349;DHT22;7258;50.376;8.742;2023-04-15T04:53:00;3.70;99.90
14349;DHT22;7258;50.376;8.742;2023-04-15T04:55:26;3.70;99.90
14349;DHT22;7258;50.376;8.742;2023-04-15T05:06:32;3.80;99.90
14349;DHT22;7258;50.376;8.742;2023-04-15T05:09:43;3.80;99.90
14349;DHT22;7258;50.376;8.742;2023-04-15T05:11:52;3.90;99.90
14349;DHT22;7258;50.376;8.742;2023-04-15T05:35:41;4.60;99.90
14349;DHT22;7258;50.376;8.742;2023-04-15T05:38:39;4.70;99.90
14349;DHT22;7258;50.376;8.742;2023-04-15T05:41:22;4.80;99.90
14349;DHT22;7258;50.376;8.742;2023-04-15T05:43:57;4.90;99.90
14349;DHT22;7258;50.376;8.742;2023-04-15T05:51:06;5.00;99.90
14349;DHT22;7258;50.376;8.742;2023-04-15T05:53:40;5.00;99.90
14349;DHT22;7258;50.376;8.742;2023-04-15T05:59:33;5.10;99.90
14349;DHT22;7258;50.376;8.742;2023-04-15T06:02:14;5.20;99.90
14349;DHT22;7258;50.376;8.742;2023-04-15T06:04:20;5.20;99.90
14349;DHT22;7258;50.376;8.742;2023-04-15T06:06:42;5.30;99.90
14349;DHT22;7258;50.376;8.742;2023-04-15T06:17:15;5.50;99.90
14349;DHT22;7258;50.376;8.742;2023-04-15T06:20:11;5.70;99.90
14349;DHT22;7258;50.376;8.742;2023-04-15T06:49:39;6.70;99.90
14349;DHT22;7258;50.376;8.742;2023-04-15T06:52:14;6.70;99.90
14349;DHT22;7258;50.376;8.742;2023-04-15T06:58:38;6.90;99.90
14349;DHT22;7258;50.376;8.742;2023-04-15T07:01:01;7.00;99.90
14349;DHT22;7258;50.376;8.742;2023-04-15T07:04:17;7.20;99.90
14349;DHT22;7258;50.376;8.742;2023-04-15T07:07:18;7.40;99.90
14349;DHT22;7258;50.376;8.742;2023-04-15T07:09:51;7.70;99.90
14349;DHT22;7258;50.376;8.742;2023-04-15T07:12:11;7.90;99.90
14349;DHT22;7258;50.376;8.742;2023-04-15T07:15:19;8.10;99.90
14349;DHT22;7258;50.376;8.742;2023-04-15T07:17:28;8.30;99.90
14349;DHT22;7258;50.376;8.742;2023-04-15T07:20:20;8.50;99.90
14349;DHT22;7258;50.376;8.742;2023-04-15T07:36:28;8.90;99.90
14349;DHT22;7258;50.376;8.742;2023-04-15T07:41:45;9.00;99.90
14349;DHT22;7258;50.376;8.742;2023-04-15T07:44:36;9.10;99.90
14349;DHT22;7258;50.376;8.742;2023-04-15T07:47:01;9.00;99.90
14349;DHT22;7258;50.376;8.742;2023-04-15T07:51:46;8.90;99.90
14349;DHT22;7258;50.376;8.742;2023-04-15T07:54:12;8.90;99.90
14349;DHT22;7258;50.376;8.742;2023-04-15T08:14:56;9.90;99.90
14349;DHT22;7258;50.376;8.742;2023-04-15T08:17:01;10.00;99.90
14349;DHT22;7258;50.376;8.742;2023-04-15T08:19:20;10.20;99.90
14349;DHT22;7258;50.376;8.742;2023-04-15T08:21:31;10.40;99.90
14349;DHT22;7258;50.376;8.742;2023-04-15T08:23:46;10.60;99.90
14349;DHT22;7258;50.376;8.742;2023-04-15T08:25:55;10.70;99.90
14349;DHT22;7258;50.376;8.742;2023-04-15T08:28:03;10.80;99.90
14349;DHT22;7258;50.376;8.742;2023-04-15T08:30:09;11.00;99.90
14349;DHT22;7258;50.376;8.742;2023-04-15T08:32:15;11.10;99.90
14349;DHT22;7258;50.376;8.742;2023-04-15T08:34:19;11.30;99.90
14349;DHT22;7258;50.376;8.742;2023-04-15T08:36:25;11.40;99.90
14349;DHT22;7258;50.376;8.742;2023-04-15T08:38:36;11.40;99.90
14349;DHT22;7258;50.376;8.742;2023-04-15T08:40:41;11.40;99.90
14349;DHT22;7258;50.376;8.742;2023-04-15T08:43:00;11.30;99.90
14349;DHT22;7258;50.376;8.742;2023-04-15T08:45:17;11.40;99.90
14349;DHT22;7258;50.376;8.742;2023-04-15T08:47:35;11.30;99.90
14349;DHT22;7258;50.376;8.742;2023-04-15T08:49:52;11.20;99.90
14349;DHT22;7258;50.376;8.742;2023-04-15T08:52:33;11.20;99.90
14349;DHT22;7258;50.376;8.742;2023-04-15T08:54:52;11.30;99.90
14349;DHT22;7258;50.376;8.742;2023-04-15T09:00:01;11.30;99.90
14349;DHT22;7258;50.376;8.742;2023-04-15T09:02:30;11.40;99.90
14349;DHT22;7258;50.376;8.742;2023-04-15T09:04:46;11.50;99.90
14349;DHT22;7258;50.376;8.742;2023-04-15T09:07:16;11.60;99.90
14349;DHT22;7258;50.376;8.742;2023-04-15T09:10:02;11.70;99.90
14349;DHT22;7258;50.376;8.742;2023-04-15T09:12:12;11.90;99.90
14349;DHT22;7258;50.376;8.742;2023-04-15T09:14:58;11.90;99.90
14349;DHT22;7258;50.376;8.742;2023-04-15T09:17:42;11.90;99.90
14349;DHT22;7258;50.376;8.742;2023-04-15T09:19:46;11.60;99.90
14349;DHT22;7258;50.376;8.742;2023-04-15T09:22:03;11.50;99.90
14349;DHT22;7258;50.376;8.742;2023-04-15T09:24:24;11.20;99.90
14349;DHT22;7258;50.376;8.742;2023-04-15T09:26:35;11.00;99.90
14349;DHT22;7258;50.376;8.742;2023-04-15T09:28:43;10.90;99.90
14349;DHT22;7258;50.376;8.742;2023-04-15T09:31:11;10.80;99.90
14349;DHT22;7258;50.376;8.742;2023-04-15T09:33:36;10.80;99.90
14349;DHT22;7258;50.376;8.742;2023-04-15T09:35:59;10.80;99.90
14349;DHT22;7258;50.376;8.742;2023-04-15T09:38:04;10.90;99.90
14349;DHT22;7258;50.376;8.742;2023-04-15T09:40:39;10.90;99.90
14349;DHT22;7258;50.376;8.742;2023-04-15T09:43:03;10.80;99.90
14349;DHT22;7258;50.376;8.742;2023-04-15T09:45:08;10.80;99.90
14349;DHT22;7258;50.376;8.742;2023-04-15T09:47:27;10.80;99.90
14349;DHT22;7258;50.376;8.742;2023-04-15T09:49:38;10.80;99.90
14349;DHT22;7258;50.376;8.742;2023-04-15T09:59:52;11.10;99.90
14349;DHT22;7258;50.376;8.742;2023-04-15T10:02:43;11.10;99.90
14349;DHT22;7258;50.376;8.742;2023-04-15T10:08:43;11.20;99.90
14349;DHT22;7258;50.376;8.742;2023-04-15T10:11:04;11.30;99.90
14349;DHT22;7258;50.376;8.742;2023-04-15T10:17:16;11.40;99.90
14349;DHT22;7258;50.376;8.742;2023-04-15T10:19:25;11.60;99.90
14349;DHT22;7258;50.376;8.742;2023-04-15T10:21:59;11.60;99.90
14349;DHT22;7258;50.376;8.742;2023-04-15T10:24:18;11.60;99.90
14349;DHT22;7258;50.376;8.742;2023-04-15T10:27:06;11.60;99.90
14349;DHT22;7258;50.376;8.742;2023-04-15T10:29:26;11.50;99.90
14349;DHT22;7258;50.376;8.742;2023-04-15T10:31:33;11.40;99.90
14349;DHT22;7258;50.376;8.742;2023-04-15T10:33:50;11.20;99.90
14349;DHT22;7258;50.376;8.742;2023-04-15T10:35:59;11.00;99.90
14349;DHT22;7258;50.376;8.742;2023-04-15T10:38:41;10.80;99.90
14349;DHT22;7258;50.376;8.742;2023-04-15T10:41:16;10.70;99.90
14349;DHT22;7258;50.376;8.742;2023-04-15T10:44:07;10.50;99.90
14349;DHT22;7258;50.376;8.742;2023-04-15T10:46:34;10.30;99.90
14349;DHT22;7258;50.376;8.742;2023-04-15T10:53:59;9.90;99.90
14349;DHT22;7258;50.376;8.742;2023-04-15T11:09:03;9.40;99.90
14349;DHT22;7258;50.376;8.742;2023-04-15T11:12:10;9.30;99.90
14349;DHT22;7258;50.376;8.742;2023-04-15T11:15:43;9.20;99.90
14349;DHT22;7258;50.376;8.742;2023-04-15T11:22:19;9.10;99.90
14349;DHT22;7258;50.376;8.742;2023-04-15T11:32:32;9.00;99.90
14349;DHT22;7258;50.376;8.742;2023-04-15T11:35:04;9.00;99.90
14349;DHT22;7258;50.376;8.742;2023-04-15T11:37:47;9.00;99.90
14349;DHT22;7258;50.376;8.742;2023-04-15T11:40:08;8.90;99.90
14349;DHT22;7258;50.376;8.742;2023-04-15T11:43:30;8.80;99.90
14349;DHT22;7258;50.376;8.742;2023-04-15T11:46:43;8.80;99.90
14349;DHT22;7258;50.376;8.742;2023-04-15T11:53:17;8.70;99.90
14349;DHT22;7258;50.376;8.742;2023-04-15T11:55:59;8.70;99.90
14349;DHT22;7258;50.376;8.742;2023-04-15T11:58:39;8.60;99.90
14349;DHT22;7258;50.376;8.742;2023-04-15T12:00:52;8.60;99.90
14349;DHT22;7258;50.376;8.742;2023-04-15T12:03:42;8.60;99.90
14349;DHT22;7258;50.376;8.742;2023-04-15T12:06:23;8.70;99.90
14349;DHT22;7258;50.376;8.742;2023-04-15T12:09:25;8.80;99.90
14349;DHT22;7258;50.376;8.742;2023-04-15T12:11:57;8.80;99.90
14349;DHT22;7258;50.376;8.742;2023-04-15T12:15:05;8.80;99.90
14349;DHT22;7258;50.376;8.742;2023-04-15T12:22:17;8.90;99.90
14349;DHT22;7258;50.376;8.742;2023-04-15T12:32:24;8.70;99.90
14349;DHT22;7258;50.376;8.742;2023-04-15T12:34:52;8.70;99.90
14349;DHT22;7258;50.376;8.742;2023-04-15T12:40:31;8.80;99.90
14349;DHT22;7258;50.376;8.742;2023-04-15T12:43:04;8.70;99.90
14349;DHT22;7258;50.376;8.742;2023-04-15T12:45:46;8.70;99.90
14349;DHT22;7258;50.376;8.742;2023-04-15T12:48:25;8.80;99.90
14349;DHT22;7258;50.376;8.742;2023-04-15T12:53:34;8.70;99.90
14349;DHT22;7258;50.376;8.742;2023-04-15T12:56:08;8.60;99.90
14349;DHT22;7258;50.376;8.742;2023-04-15T12:58:28;8.60;99.90
14349;DHT22;7258;50.376;8.742;2023-04-15T13:00:39;8.60;99.90
14349;DHT22;7258;50.376;8.742;2023-04-15T13:06:53;8.60;99.90
14349;DHT22;7258;50.376;8.742;2023-04-15T13:15:49;8.50;99.90
14349;DHT22;7258;50.376;8.742;2023-04-15T13:18:09;8.50;99.90
14349;DHT22;7258;50.376;8.742;2023-04-15T13:20:26;8.40;99.90
14349;DHT22;7258;50.376;8.742;2023-04-15T13:22:38;8.40;99.90
14349;DHT22;7258;50.376;8.742;2023-04-15T13:25:18;8.40;99.90
14349;DHT22;7258;50.376;8.742;2023-04-15T13:28:00;8.30;99.90
14349;DHT22;7258;50.376;8.742;2023-04-15T13:34:01;8.30;99.90
14349;DHT22;7258;50.376;8.742;2023-04-15T13:37:23;8.40;99.90
14349;DHT22;7258;50.376;8.742;2023-04-15T13:40:29;8.30;99.90
14349;DHT22;7258;50.376;8.742;2023-04-15T13:45:54;8.40;99.90
14349;DHT22;7258;50.376;8.742;2023-04-15T13:48:20;8.40;99.90
14349;DHT22;7258;50.376;8.742;2023-04-15T13:50:47;8.40;99.90
14349;DHT22;7258;50.376;8.742;2023-04-15T14:03:46;8.50;99.90
14349;DHT22;7258;50.376;8.742;2023-04-15T14:05:49;8.40;99.90
14349;DHT22;7258;50.376;8.742;2023-04-15T14:07:56;8.40;99.90
14349;DHT22;7258;50.376;8.742;2023-04-15T14:10:00;8.40;99.90
14349;DHT22;7258;50.376;8.742;2023-04-15T14:12:04;8.30;99.90
14349;DHT22;7258;50.376;8.742;2023-04-15T14:17:20;8.30;99.90
14349;DHT22;7258;50.376;8.742;2023-04-15T14:20:19;8.20;99.90
14349;DHT22;7258;50.376;8.742;2023-04-15T14:22:35;8.30;99.90
14349;DHT22;7258;50.376;8.742;2023-04-15T14:24:58;8.20;99.90
14349;DHT22;7258;50.376;8.742;2023-04-15T14:27:53;8.20;99.90
14349;DHT22;7258;50.376;8.742;2023-04-15T14:30:15;8.20;99.90
14349;DHT22;7258;50.376;8.742;2023-04-15T14:32:25;8.20;99.90
14349;DHT22;7258;50.376;8.742;2023-04-15T14:34:51;8.20;99.90
14349;DHT22;7258;50.376;8.742;2023-04-15T14:37:48;8.30;99.90
14349;DHT22;7258;50.376;8.742;2023-04-15T14:40:31;8.30;99.90
14349;DHT22;7258;50.376;8.742;2023-04-15T14:42:50;8.30;99.90
14349;DHT22;7258;50.376;8.742;2023-04-15T14:45:31;8.30;99.90
14349;DHT22;7258;50.376;8.742;2023-04-15T14:47:50;8.30;99.90
14349;DHT22;7258;50.376;8.742;2023-04-15T14:50:47;8.30;99.90
14349;DHT22;7258;50.376;8.742;2023-04-15T14:53:09;8.40;99.90
14349;DHT22;7258;50.376;8.742;2023-04-15T14:59:07;8.40;99.90
14349;DHT22;7258;50.376;8.742;2023-04-15T15:01:44;8.40;99.90
14349;DHT22;7258;50.376;8.742;2023-04-15T15:04:05;8.40;99.90
14349;DHT22;7258;50.376;8.742;2023-04-15T15:06:26;8.50;99.90
14349;DHT22;7258;50.376;8.742;2023-04-15T15:08:51;8.50;99.90
14349;DHT22;7258;50.376;8.742;2023-04-15T15:11:43;8.50;99.90
14349;DHT22;7258;50.376;8.742;2023-04-15T15:24:49;8.50;99.90
14349;DHT22;7258;50.376;8.742;2023-04-15T15:27:03;8.50;99.90
14349;DHT22;7258;50.376;8.742;2023-04-15T15:33:09;8.60;99.90
14349;DHT22;7258;50.376;8.742;2023-04-15T15:35:59;8.60;99.90
14349;DHT22;7258;50.376;8.742;2023-04-15T15:38:11;8.60;99.90
14349;DHT22;7258;50.376;8.742;2023-04-15T15:41:41;8.60;99.90
14349;DHT22;7258;50.376;8.742;2023-04-15T15:48:00;8.60;99.90
14349;DHT22;7258;50.376;8.742;2023-04-15T15:50:45;8.60;99.90
14349;DHT22;7258;50.376;8.742;2023-04-15T15:54:06;8.60;99.90
14349;DHT22;7258;50.376;8.742;2023-04-15T15:57:29;8.60;99.90
14349;DHT22;7258;50.376;8.742;2023-04-15T16:00:54;8.60;99.90
14349;DHT22;7258;50.376;8.742;2023-04-15T16:03:30;8.60;99.90
14349;DHT22;7258;50.376;8.742;2023-04-15T16:05:40;8.60;99.90
14349;DHT22;7258;50.376;8.742;2023-04-15T16:08:26;8.50;99.90
14349;DHT22;7258;50.376;8.742;2023-04-15T16:10:48;8.50;99.90
14349;DHT22;7258;50.376;8.742;2023-04-15T16:16:14;8.50;99.90
14349;DHT22;7258;50.376;8.742;2023-04-15T16:21:39;8.50;99.90
14349;DHT22;7258;50.376;8.742;2023-04-15T16:26:22;8.50;99.90
14349;DHT22;7258;50.376;8.742;2023-04-15T16:28:56;8.50;99.90
14349;DHT22;7258;50.376;8.742;2023-04-15T16:38:14;8.60;99.90
14349;DHT22;7258;50.376;8.742;2023-04-15T16:40:38;8.60;99.90
14349;DHT22;7258;50.376;8.742;2023-04-15T16:43:14;8.60;99.90
14349;DHT22;7258;50.376;8.742;2023-04-15T16:45:31;8.60;99.90
14349;DHT22;7258;50.376;8.742;2023-04-15T16:47:42;8.60;99.90
14349;DHT22;7258;50.376;8.742;2023-04-15T16:50:16;8.60;99.90
14349;DHT22;7258;50.376;8.742;2023-04-15T16:52:51;8.70;99.90
14349;DHT22;7258;50.376;8.742;2023-04-15T17:01:46;8.70;99.90
14349;DHT22;7258;50.376;8.742;2023-04-15T17:04:03;8.70;99.90
14349;DHT22;7258;50.376;8.742;2023-04-15T17:06:40;8.70;99.90
14349;DHT22;7258;50.376;8.742;2023-04-15T17:09:03;8.70;99.90
14349;DHT22;7258;50.376;8.742;2023-04-15T17:11:18;8.70;99.90
14349;DHT22;7258;50.376;8.742;2023-04-15T17:13:43;8.70;99.90
14349;DHT22;7258;50.376;8.742;2023-04-15T17:16:31;8.70;99.90
14349;DHT22;7258;50.376;8.742;2023-04-15T17:18:50;8.60;99.90
14349;DHT22;7258;50.376;8.742;2023-04-15T17:20:54;8.60;99.90
14349;DHT22;7258;50.376;8.742;2023-04-15T17:23:06;8.60;99.90
14349;DHT22;7258;50.376;8.742;2023-04-15T17:25:19;8.60;99.90
14349;DHT22;7258;50.376;8.742;2023-04-15T17:27:23;8.60;99.90
14349;DHT22;7258;50.376;8.742;2023-04-15T17:29:28;8.60;99.90
14349;DHT22;7258;50.376;8.742;2023-04-15T17:31:31;8.50;99.90
14349;DHT22;7258;50.376;8.742;2023-04-15T17:33:34;8.50;99.90
14349;DHT22;7258;50.376;8.742;2023-04-15T17:36:00;8.50;99.90
14349;DHT22;7258;50.376;8.742;2023-04-15T17:38:04;8.50;99.90
14349;DHT22;7258;50.376;8.742;2023-04-15T17:40:08;8.50;99.90
14349;DHT22;7258;50.376;8.742;2023-04-15T17:42:12;8.50;99.90
14349;DHT22;7258;50.376;8.742;2023-04-15T17:44:53;8.50;99.90
14349;DHT22;7258;50.376;8.742;2023-04-15T17:47:04;8.50;99.90
14349;DHT22;7258;50.376;8.742;2023-04-15T17:50:04;8.40;99.90
14349;DHT22;7258;50.376;8.742;2023-04-15T17:52:53;8.40;99.90
14349;DHT22;7258;50.376;8.742;2023-04-15T17:55:38;8.40;99.90
14349;DHT22;7258;50.376;8.742;2023-04-15T17:58:19;8.30;99.90
14349;DHT22;7258;50.376;8.742;2023-04-15T18:00:27;8.30;99.90
14349;DHT22;7258;50.376;8.742;2023-04-15T18:02:43;8.30;99.90
14349;DHT22;7258;50.376;8.742;2023-04-15T18:05:14;8.30;99.90
14349;DHT22;7258;50.376;8.742;2023-04-15T18:07:26;8.30;99.90
14349;DHT22;7258;50.376;8.742;2023-04-15T18:10:07;8.30;99.90
14349;DHT22;7258;50.376;8.742;2023-04-15T18:15:24;8.20;99.90
14349;DHT22;7258;50.376;8.742;2023-04-15T18:17:57;8.20;99.90
14349;DHT22;7258;50.376;8.742;2023-04-15T18:20:50;8.20;99.90
14349;DHT22;7258;50.376;8.742;2023-04-15T18:23:44;8.20;99.90
14349;DHT22;7258;50.376;8.742;2023-04-15T18:36:14;8.20;99.90
14349;DHT22;7258;50.376;8.742;2023-04-15T18:38:26;8.20;99.90
14349;DHT22;7258;50.376;8.742;2023-04-15T18:40:43;8.20;99.90
14349;DHT22;7258;50.376;8.742;2023-04-15T18:43:05;8.20;99.90
14349;DHT22;7258;50.376;8.742;2023-04-15T18:45:43;8.20;99.90
14349;DHT22;7258;50.376;8.742;2023-04-15T18:49:09;8.20;99.90
14349;DHT22;7258;50.376;8.742;2023-04-15T18:52:20;8.20;99.90
14349;DHT22;7258;50.376;8.742;2023-04-15T18:58:09;8.30;99.90
14349;DHT22;7258;50.376;8.742;2023-04-15T19:00:34;8.30;99.90
14349;DHT22;7258;50.376;8.742;2023-04-15T19:03:13;8.30;99.90
14349;DHT22;7258;50.376;8.742;2023-04-15T19:30:13;8.50;99.90
14349;DHT22;7258;50.376;8.742;2023-04-15T19:33:03;8.50;99.90
14349;DHT22;7258;50.376;8.742;2023-04-15T19:35:39;8.50;99.90
14349;DHT22;7258;50.376;8.742;2023-04-15T19:38:38;8.50;99.90
14349;DHT22;7258;50.376;8.742;2023-04-15T19:41:03;8.60;99.90
14349;DHT22;7258;50.376;8.742;2023-04-15T19:43:23;8.60;99.90
14349;DHT22;7258;50.376;8.742;2023-04-15T19:46:03;8.60;99.90
14349;DHT22;7258;50.376;8.742;2023-04-15T19:49:37;8.60;99.90
14349;DHT22;7258;50.376;8.742;2023-04-15T20:07:39;8.50;99.90
14349;DHT22;7258;50.376;8.742;2023-04-15T20:15:13;8.50;99.90
14349;DHT22;7258;50.376;8.742;2023-04-15T20:18:05;8.50;99.90
14349;DHT22;7258;50.376;8.742;2023-04-15T20:20:40;8.50;99.90
14349;DHT22;7258;50.376;8.742;2023-04-15T20:23:07;8.50;99.90
14349;DHT22;7258;50.376;8.742;2023-04-15T20:25:35;8.50;99.90
14349;DHT22;7258;50.376;8.742;2023-04-15T20:28:24;8.50;99.90
14349;DHT22;7258;50.376;8.742;2023-04-15T20:31:47;8.50;99.90
14349;DHT22;7258;50.376;8.742;2023-04-15T20:34:45;8.50;99.90
14349;DHT22;7258;50.376;8.742;2023-04-15T20:37:13;8.40;99.90
14349;DHT22;7258;50.376;8.742;2023-04-15T20:40:13;8.50;99.90
14349;DHT22;7258;50.376;8.742;2023-04-15T20:51:39;8.40;99.90
14349;DHT22;7258;50.376;8.742;2023-04-15T21:23:00;8.20;99.90
14349;DHT22;7258;50.376;8.742;2023-04-15T22:06:35;8.50;99.90
14349;DHT22;7258;50.376;8.742;2023-04-15T22:27:00;8.60;99.90
14349;DHT22;7258;50.376;8.742;2023-04-15T22:35:40;8.60;99.90
14349;DHT22;7258;50.376;8.742;2023-04-15T22:38:01;8.60;99.90
14349;DHT22;7258;50.376;8.742;2023-04-15T22:44:30;8.60;99.90
14349;DHT22;7258;50.376;8.742;2023-04-15T22:46:56;8.60;99.90
14349;DHT22;7258;50.376;8.742;2023-04-15T22:52:30;8.60;99.90
14349;DHT22;7258;50.376;8.742;2023-04-15T22:54:50;8.60;99.90
14349;DHT22;7258;50.376;8.742;2023-04-15T22:57:47;8.60;99.90
14349;DHT22;7258;50.376;8.742;2023-04-15T23:00:23;8.60;99.90
14349;DHT22;7258;50.376;8.742;2023-04-15T23:03:04;8.60;99.90
14349;DHT22;7258;50.376;8.742;2023-04-15T23:05:30;8.60;99.90
14349;DHT22;7258;50.376;8.742;2023-04-15T23:07:49;8.60;99.90
14349;DHT22;7258;50.376;8.742;2023-04-15T23:10:10;8.60;99.90
14349;DHT22;7258;50.376;8.742;2023-04-15T23:12:25;8.60;99.90
14349;DHT22;7258;50.376;8.742;2023-04-15T23:21:49;8.70;99.90
14349;DHT22;7258;50.376;8.742;2023-04-15T23:24:56;8.70;99.90
14349;DHT22;7258;50.376;8.742;2023-04-15T23:27:28;8.70;99.90
14349;DHT22;7258;50.376;8.742;2023-04-15T23:29:47;8.70;99.90
14349;DHT22;7258;50.376;8.742;2023-04-15T23:32:07;8.70;99.90
14349;DHT22;7258;50.376;8.742;2023-04-15T23:34:42;8.70;99.90
14349;DHT22;7258;50.376;8.742;2023-04-15T23:37:32;8.70;99.90
14349;DHT22;7258;50.376;8.742;2023-04-15T23:39:57;8.70;99.90
14349;DHT22;7258;50.376;8.742;2023-04-15T23:42:17;8.70;99.90
14349;DHT22;7258;50.376;8.742;2023-04-15T23:47:23;8.70;99.90
14349;DHT22;7258;50.376;8.742;2023-04-15T23:49:51;8.70;99.90
14349;DHT22;7258;50.376;8.742;2023-04-15T23:52:35;8.70;99.90
14349;DHT22;7258;50.376;8.742;2023-04-15T23:55:02;8.70;99.90
14349;DHT22;7258;50.376;8.742;2023-04-15T23:57:42;8.60;99.90
14349;DHT22;7258;50.376;8.742;2023-04-15T23:59:47;8.70;99.90
